sensor_id;sensor_type;location;lat;lon;timestamp;pressure;altitude;pressure_sealevel;temperature;humidity
64064;BME280;50314;50.618;10.642;2022-12-29T00:01:15;95962.16;;;15.37;26.60
64064;BME280;50314;50.618;10.642;2022-12-29T00:03:41;95967.47;;;15.37;26.51
64064;BME280;50314;50.618;10.642;2022-12-29T00:06:06;95963.97;;;15.37;26.48
64064;BME280;50314;50.618;10.642;2022-12-29T00:08:31;95972.91;;;15.36;26.75
64064;BME280;50314;50.618;10.642;2022-12-29T00:11:10;95965.78;;;15.36;26.49
64064;BME280;50314;50.618;10.642;2022-12-29T00:13:37;95963.13;;;15.36;26.56
64064;BME280;50314;50.618;10.642;2022-12-29T00:16:21;95951.88;;;15.34;26.71
64064;BME280;50314;50.618;10.642;2022-12-29T00:18:46;95943.91;;;15.34;26.52
64064;BME280;50314;50.618;10.642;2022-12-29T00:21:17;95942.41;;;15.32;26.52
64064;BME280;50314;50.618;10.642;2022-12-29T00:24:01;95946.69;;;15.33;26.29
64064;BME280;50314;50.618;10.642;2022-12-29T00:29:45;95937.09;;;15.32;26.63
64064;BME280;50314;50.618;10.642;2022-12-29T00:32:29;95944.38;;;15.30;26.63
64064;BME280;50314;50.618;10.642;2022-12-29T00:35:19;95943.53;;;15.29;26.78
64064;BME280;50314;50.618;10.642;2022-12-29T00:37:47;95950.53;;;15.30;26.35
64064;BME280;50314;50.618;10.642;2022-12-29T00:40:32;95943.53;;;15.29;26.53
64064;BME280;50314;50.618;10.642;2022-12-29T00:43:16;95941.06;;;15.27;26.61
64064;BME280;50314;50.618;10.642;2022-12-29T00:46:00;95941.22;;;15.26;26.57
64064;BME280;50314;50.618;10.642;2022-12-29T00:48:26;95940.25;;;15.27;26.36
64064;BME280;50314;50.618;10.642;2022-12-29T00:51:09;95942.88;;;15.27;26.62
64064;BME280;50314;50.618;10.642;2022-12-29T00:53:35;95937.59;;;15.27;26.51
64064;BME280;50314;50.618;10.642;2022-12-29T00:56:00;95931.28;;;15.28;26.38
64064;BME280;50314;50.618;10.642;2022-12-29T00:58:27;95924.97;;;15.29;26.32
64064;BME280;50314;50.618;10.642;2022-12-29T01:01:01;95928.63;;;15.28;26.51
64064;BME280;50314;50.618;10.642;2022-12-29T01:03:27;95918.69;;;15.30;26.49
64064;BME280;50314;50.618;10.642;2022-12-29T01:05:52;95922.16;;;15.31;26.61
64064;BME280;50314;50.618;10.642;2022-12-29T01:08:17;95915.03;;;15.31;26.39
64064;BME280;50314;50.618;10.642;2022-12-29T01:10:43;95920.50;;;15.30;26.54
64064;BME280;50314;50.618;10.642;2022-12-29T01:13:08;95908.09;;;15.30;26.42
64064;BME280;50314;50.618;10.642;2022-12-29T01:15:34;95917.69;;;15.31;26.43
64064;BME280;50314;50.618;10.642;2022-12-29T01:17:59;95912.38;;;15.31;26.70
64064;BME280;50314;50.618;10.642;2022-12-29T01:20:25;95918.53;;;15.32;26.37
64064;BME280;50314;50.618;10.642;2022-12-29T01:22:50;95915.88;;;15.32;26.43
64064;BME280;50314;50.618;10.642;2022-12-29T01:25:16;95917.69;;;15.31;26.51
64064;BME280;50314;50.618;10.642;2022-12-29T01:27:41;95917.00;;;15.29;26.42
64064;BME280;50314;50.618;10.642;2022-12-29T01:30:07;95917.84;;;15.30;26.28
64064;BME280;50314;50.618;10.642;2022-12-29T01:32:32;95917.84;;;15.30;26.40
64064;BME280;50314;50.618;10.642;2022-12-29T01:34:58;95908.09;;;15.30;26.49
64064;BME280;50314;50.618;10.642;2022-12-29T01:37:23;95907.41;;;15.28;26.42
64064;BME280;50314;50.618;10.642;2022-12-29T01:39:49;95910.75;;;15.30;26.35
64064;BME280;50314;50.618;10.642;2022-12-29T01:42:19;95910.06;;;15.28;26.50
64064;BME280;50314;50.618;10.642;2022-12-29T01:44:51;95916.19;;;15.28;26.48
64064;BME280;50314;50.618;10.642;2022-12-29T01:47:40;95924.63;;;15.24;26.26
64064;BME280;50314;50.618;10.642;2022-12-29T01:50:14;95927.28;;;15.24;26.54
64064;BME280;50314;50.618;10.642;2022-12-29T01:53:19;95921.31;;;15.22;26.51
64064;BME280;50314;50.618;10.642;2022-12-29T01:55:50;95905.06;;;15.25;26.57
64064;BME280;50314;50.618;10.642;2022-12-29T01:58:19;95914.69;;;15.26;26.46
64064;BME280;50314;50.618;10.642;2022-12-29T02:00:47;95912.84;;;15.26;26.36
64064;BME280;50314;50.618;10.642;2022-12-29T02:03:13;95912.84;;;15.26;26.44
64064;BME280;50314;50.618;10.642;2022-12-29T02:05:50;95905.25;;;15.23;26.74
64064;BME280;50314;50.618;10.642;2022-12-29T02:08:20;95906.72;;;15.26;26.50
64064;BME280;50314;50.618;10.642;2022-12-29T02:10:47;95903.09;;;15.27;26.40
64064;BME280;50314;50.618;10.642;2022-12-29T02:13:15;95892.63;;;15.25;26.24
64064;BME280;50314;50.618;10.642;2022-12-29T02:24:11;95898.44;;;15.21;26.37
64064;BME280;50314;50.618;10.642;2022-12-29T02:32:52;95891.81;;;15.17;26.63
64064;BME280;50314;50.618;10.642;2022-12-29T02:41:19;95883.66;;;15.18;26.67
64064;BME280;50314;50.618;10.642;2022-12-29T02:46:39;95887.16;;;15.19;26.46
64064;BME280;50314;50.618;10.642;2022-12-29T02:49:23;95893.44;;;15.18;26.25
64064;BME280;50314;50.618;10.642;2022-12-29T02:52:01;95891.47;;;15.20;26.39
64064;BME280;50314;50.618;10.642;2022-12-29T02:54:28;95891.13;;;15.23;26.58
64064;BME280;50314;50.618;10.642;2022-12-29T02:57:27;95895.09;;;15.19;26.36
64064;BME280;50314;50.618;10.642;2022-12-29T03:02:39;95886.16;;;15.20;26.38
64064;BME280;50314;50.618;10.642;2022-12-29T03:10:19;95895.59;;;15.22;26.62
64064;BME280;50314;50.618;10.642;2022-12-29T03:15:46;95887.16;;;15.19;26.59
64064;BME280;50314;50.618;10.642;2022-12-29T03:18:41;95887.97;;;15.19;26.58
64064;BME280;50314;50.618;10.642;2022-12-29T03:23:37;95886.69;;;15.23;26.41
64064;BME280;50314;50.618;10.642;2022-12-29T03:26:08;95882.19;;;15.24;26.41
64064;BME280;50314;50.618;10.642;2022-12-29T03:28:39;95884.66;;;15.25;26.43
64064;BME280;50314;50.618;10.642;2022-12-29T03:31:07;95886.31;;;15.26;26.41
64064;BME280;50314;50.618;10.642;2022-12-29T03:33:36;95890.47;;;15.29;26.63
64064;BME280;50314;50.618;10.642;2022-12-29T03:36:06;95885.19;;;15.29;26.14
64064;BME280;50314;50.618;10.642;2022-12-29T03:38:44;95896.94;;;15.26;26.52
64064;BME280;50314;50.618;10.642;2022-12-29T03:41:17;95880.88;;;15.28;26.20
64064;BME280;50314;50.618;10.642;2022-12-29T03:43:45;95886.00;;;15.30;26.21
64064;BME280;50314;50.618;10.642;2022-12-29T03:46:11;95885.03;;;15.31;26.50
64064;BME280;50314;50.618;10.642;2022-12-29T03:48:36;95885.03;;;15.31;26.44
64064;BME280;50314;50.618;10.642;2022-12-29T03:51:02;95887.69;;;15.31;26.28
64064;BME280;50314;50.618;10.642;2022-12-29T03:53:27;95880.56;;;15.31;26.36
64064;BME280;50314;50.618;10.642;2022-12-29T03:55:53;95877.91;;;15.31;26.21
64064;BME280;50314;50.618;10.642;2022-12-29T03:58:18;95868.94;;;15.32;26.30
64064;BME280;50314;50.618;10.642;2022-12-29T04:00:43;95871.44;;;15.34;26.32
64064;BME280;50314;50.618;10.642;2022-12-29T04:03:09;95871.59;;;15.32;26.60
64064;BME280;50314;50.618;10.642;2022-12-29T04:05:34;95860.97;;;15.32;26.25
64064;BME280;50314;50.618;10.642;2022-12-29T04:08:00;95853.84;;;15.33;26.61
64064;BME280;50314;50.618;10.642;2022-12-29T04:10:25;95847.56;;;15.34;26.19
64064;BME280;50314;50.618;10.642;2022-12-29T04:12:51;95847.38;;;15.35;26.34
64064;BME280;50314;50.618;10.642;2022-12-29T04:15:16;95831.47;;;15.35;26.34
64064;BME280;50314;50.618;10.642;2022-12-29T04:17:42;95829.66;;;15.36;26.45
64064;BME280;50314;50.618;10.642;2022-12-29T04:20:08;95835.94;;;15.35;26.16
64064;BME280;50314;50.618;10.642;2022-12-29T04:23:03;95845.25;;;15.31;26.35
64064;BME280;50314;50.618;10.642;2022-12-29T04:25:29;95835.28;;;15.33;26.30
64064;BME280;50314;50.618;10.642;2022-12-29T04:27:55;95835.13;;;15.34;26.37
64064;BME280;50314;50.618;10.642;2022-12-29T04:30:21;95838.75;;;15.33;26.19
64064;BME280;50314;50.618;10.642;2022-12-29T04:32:46;95840.44;;;15.34;26.36
64064;BME280;50314;50.618;10.642;2022-12-29T04:35:11;95837.78;;;15.34;26.18
64064;BME280;50314;50.618;10.642;2022-12-29T04:37:37;95827.16;;;15.34;26.19
64064;BME280;50314;50.618;10.642;2022-12-29T04:40:03;95830.47;;;15.36;26.35
64064;BME280;50314;50.618;10.642;2022-12-29T04:42:28;95838.44;;;15.36;26.44
64064;BME280;50314;50.618;10.642;2022-12-29T04:44:53;95845.41;;;15.37;26.49
64064;BME280;50314;50.618;10.642;2022-12-29T04:47:19;95849.03;;;15.36;26.24
64064;BME280;50314;50.618;10.642;2022-12-29T04:49:44;95846.38;;;15.36;26.12
64064;BME280;50314;50.618;10.642;2022-12-29T04:52:10;95843.72;;;15.36;26.20
64064;BME280;50314;50.618;10.642;2022-12-29T04:54:35;95834.81;;;15.37;26.52
64064;BME280;50314;50.618;10.642;2022-12-29T04:57:01;95838.44;;;15.36;26.45
64064;BME280;50314;50.618;10.642;2022-12-29T04:59:26;95833.13;;;15.36;26.42
64064;BME280;50314;50.618;10.642;2022-12-29T05:01:52;95833.97;;;15.37;26.16
64064;BME280;50314;50.618;10.642;2022-12-29T05:04:17;95826.84;;;15.37;26.48
64064;BME280;50314;50.618;10.642;2022-12-29T05:06:42;95826.03;;;15.37;26.24
64064;BME280;50314;50.618;10.642;2022-12-29T05:09:08;95824.19;;;15.37;26.46
64064;BME280;50314;50.618;10.642;2022-12-29T05:11:34;95833.81;;;15.38;26.44
64064;BME280;50314;50.618;10.642;2022-12-29T05:14:00;95825.00;;;15.38;26.32
64064;BME280;50314;50.618;10.642;2022-12-29T05:16:25;95821.53;;;15.37;26.42
64064;BME280;50314;50.618;10.642;2022-12-29T05:18:50;95823.19;;;15.38;26.04
64064;BME280;50314;50.618;10.642;2022-12-29T05:21:16;95831.16;;;15.38;26.35
64064;BME280;50314;50.618;10.642;2022-12-29T05:23:41;95825.84;;;15.38;26.47
64064;BME280;50314;50.618;10.642;2022-12-29T05:26:07;95825.00;;;15.38;26.17
64064;BME280;50314;50.618;10.642;2022-12-29T05:28:32;95832.78;;;15.39;26.34
64064;BME280;50314;50.618;10.642;2022-12-29T05:30:58;95832.78;;;15.39;26.40
64064;BME280;50314;50.618;10.642;2022-12-29T05:33:23;95835.44;;;15.39;26.27
64064;BME280;50314;50.618;10.642;2022-12-29T05:35:49;95832.78;;;15.39;26.29
64064;BME280;50314;50.618;10.642;2022-12-29T05:38:14;95828.31;;;15.40;26.25
64064;BME280;50314;50.618;10.642;2022-12-29T05:40:39;95832.78;;;15.39;26.44
64064;BME280;50314;50.618;10.642;2022-12-29T05:43:05;95838.94;;;15.40;26.49
64064;BME280;50314;50.618;10.642;2022-12-29T05:45:30;95836.28;;;15.40;26.23
64064;BME280;50314;50.618;10.642;2022-12-29T05:47:56;95839.81;;;15.40;26.39
64064;BME280;50314;50.618;10.642;2022-12-29T05:50:21;95829.19;;;15.40;26.41
64064;BME280;50314;50.618;10.642;2022-12-29T05:52:47;95824.72;;;15.41;26.39
64064;BME280;50314;50.618;10.642;2022-12-29T05:55:13;95836.16;;;15.41;26.40
64064;BME280;50314;50.618;10.642;2022-12-29T05:57:38;95830.03;;;15.41;26.24
64064;BME280;50314;50.618;10.642;2022-12-29T06:00:05;95821.06;;;15.42;26.31
64064;BME280;50314;50.618;10.642;2022-12-29T06:02:31;95828.19;;;15.41;26.15
64064;BME280;50314;50.618;10.642;2022-12-29T06:04:56;95822.88;;;15.41;26.15
64064;BME280;50314;50.618;10.642;2022-12-29T06:07:22;95825.38;;;15.43;26.44
64064;BME280;50314;50.618;10.642;2022-12-29T06:09:47;95814.75;;;15.43;26.33
64064;BME280;50314;50.618;10.642;2022-12-29T06:12:12;95818.22;;;15.43;26.36
64064;BME280;50314;50.618;10.642;2022-12-29T06:14:38;95827.03;;;15.44;26.26
64064;BME280;50314;50.618;10.642;2022-12-29T06:17:04;95821.75;;;15.44;26.11
64064;BME280;50314;50.618;10.642;2022-12-29T06:19:29;95807.63;;;15.43;26.40
64064;BME280;50314;50.618;10.642;2022-12-29T06:21:57;95820.06;;;15.43;26.42
64064;BME280;50314;50.618;10.642;2022-12-29T06:24:22;95818.09;;;15.45;26.39
64064;BME280;50314;50.618;10.642;2022-12-29T06:26:48;95829.53;;;15.45;26.25
64064;BME280;50314;50.618;10.642;2022-12-29T06:29:13;95825.03;;;15.46;26.38
64064;BME280;50314;50.618;10.642;2022-12-29T06:31:43;95817.06;;;15.46;26.05
64064;BME280;50314;50.618;10.642;2022-12-29T06:34:11;95827.69;;;15.46;26.20
64064;BME280;50314;50.618;10.642;2022-12-29T06:36:36;95825.03;;;15.46;26.30
64064;BME280;50314;50.618;10.642;2022-12-29T06:39:02;95826.88;;;15.45;26.39
64064;BME280;50314;50.618;10.642;2022-12-29T06:41:27;95826.72;;;15.47;26.21
64064;BME280;50314;50.618;10.642;2022-12-29T06:43:53;95817.91;;;15.46;26.19
64064;BME280;50314;50.618;10.642;2022-12-29T06:46:18;95815.25;;;15.46;26.30
64064;BME280;50314;50.618;10.642;2022-12-29T06:48:44;95825.88;;;15.46;26.10
64064;BME280;50314;50.618;10.642;2022-12-29T06:51:09;95822.25;;;15.47;26.12
64064;BME280;50314;50.618;10.642;2022-12-29T06:53:35;95822.25;;;15.47;26.18
64064;BME280;50314;50.618;10.642;2022-12-29T06:56:00;95820.56;;;15.46;26.37
64064;BME280;50314;50.618;10.642;2022-12-29T06:58:25;95819.59;;;15.47;26.31
64064;BME280;50314;50.618;10.642;2022-12-29T07:00:51;95828.50;;;15.46;26.57
64064;BME280;50314;50.618;10.642;2022-12-29T07:03:16;95827.53;;;15.47;26.08
64064;BME280;50314;50.618;10.642;2022-12-29T07:05:42;95819.59;;;15.47;26.39
64064;BME280;50314;50.618;10.642;2022-12-29T07:08:07;95826.72;;;15.47;26.17
64064;BME280;50314;50.618;10.642;2022-12-29T07:10:33;95823.22;;;15.46;26.16
64064;BME280;50314;50.618;10.642;2022-12-29T07:12:59;95819.59;;;15.47;25.98
64064;BME280;50314;50.618;10.642;2022-12-29T07:15:24;95823.88;;;15.48;26.13
64064;BME280;50314;50.618;10.642;2022-12-29T07:17:50;95827.38;;;15.49;26.07
64064;BME280;50314;50.618;10.642;2022-12-29T07:20:15;95821.22;;;15.48;26.42
64064;BME280;50314;50.618;10.642;2022-12-29T07:22:41;95827.38;;;15.49;26.30
64064;BME280;50314;50.618;10.642;2022-12-29T07:25:07;95836.16;;;15.49;26.13
64064;BME280;50314;50.618;10.642;2022-12-29T07:27:33;95827.38;;;15.49;26.48
64064;BME280;50314;50.618;10.642;2022-12-29T07:29:58;95833.50;;;15.49;26.11
64064;BME280;50314;50.618;10.642;2022-12-29T07:32:24;95829.88;;;15.50;26.35
64064;BME280;50314;50.618;10.642;2022-12-29T07:34:49;95832.53;;;15.50;26.28
64064;BME280;50314;50.618;10.642;2022-12-29T07:37:15;95824.56;;;15.50;26.17
64064;BME280;50314;50.618;10.642;2022-12-29T07:39:40;95844.13;;;15.49;26.53
64064;BME280;50314;50.618;10.642;2022-12-29T07:42:06;95845.78;;;15.50;26.61
64064;BME280;50314;50.618;10.642;2022-12-29T07:44:31;95826.38;;;15.50;26.30
64064;BME280;50314;50.618;10.642;2022-12-29T07:46:57;95843.13;;;15.50;26.36
64064;BME280;50314;50.618;10.642;2022-12-29T07:49:22;95826.22;;;15.52;26.35
64064;BME280;50314;50.618;10.642;2022-12-29T07:51:48;95836.81;;;15.52;26.29
64064;BME280;50314;50.618;10.642;2022-12-29T07:54:13;95823.56;;;15.52;26.45
64064;BME280;50314;50.618;10.642;2022-12-29T07:56:39;95835.19;;;15.50;26.61
64064;BME280;50314;50.618;10.642;2022-12-29T07:59:05;95842.13;;;15.52;26.65
64064;BME280;50314;50.618;10.642;2022-12-29T08:01:31;95828.88;;;15.52;26.65
64064;BME280;50314;50.618;10.642;2022-12-29T08:03:56;95833.03;;;15.54;26.76
64064;BME280;50314;50.618;10.642;2022-12-29T08:06:21;95834.84;;;15.54;27.01
64064;BME280;50314;50.618;10.642;2022-12-29T08:08:47;95837.31;;;15.55;27.11
64064;BME280;50314;50.618;10.642;2022-12-29T08:11:13;95831.19;;;15.55;26.93
64064;BME280;50314;50.618;10.642;2022-12-29T08:13:38;95833.84;;;15.55;26.94
64064;BME280;50314;50.618;10.642;2022-12-29T08:16:04;95828.34;;;15.56;26.96
64064;BME280;50314;50.618;10.642;2022-12-29T08:18:29;95823.88;;;15.57;27.06
64064;BME280;50314;50.618;10.642;2022-12-29T08:20:55;95829.19;;;15.57;27.29
64064;BME280;50314;50.618;10.642;2022-12-29T08:23:20;95830.88;;;15.58;27.12
64064;BME280;50314;50.618;10.642;2022-12-29T08:25:46;95830.88;;;15.58;27.35
64064;BME280;50314;50.618;10.642;2022-12-29T08:28:11;95827.19;;;15.59;27.37
64064;BME280;50314;50.618;10.642;2022-12-29T08:30:36;95823.53;;;15.60;27.53
64064;BME280;50314;50.618;10.642;2022-12-29T08:33:02;95830.53;;;15.61;27.07
64064;BME280;50314;50.618;10.642;2022-12-29T08:35:27;95826.06;;;15.61;27.19
64064;BME280;50314;50.618;10.642;2022-12-29T08:37:53;95819.06;;;15.60;27.38
64064;BME280;50314;50.618;10.642;2022-12-29T08:40:18;95828.72;;;15.61;27.21
64064;BME280;50314;50.618;10.642;2022-12-29T08:42:44;95825.22;;;15.61;27.37
64064;BME280;50314;50.618;10.642;2022-12-29T08:45:10;95834.84;;;15.62;27.19
64064;BME280;50314;50.618;10.642;2022-12-29T08:47:35;95822.41;;;15.62;27.40
64064;BME280;50314;50.618;10.642;2022-12-29T08:50:01;95830.22;;;15.64;27.50
64064;BME280;50314;50.618;10.642;2022-12-29T08:52:26;95828.53;;;15.63;27.35
64064;BME280;50314;50.618;10.642;2022-12-29T08:54:52;95835.50;;;15.64;27.20
64064;BME280;50314;50.618;10.642;2022-12-29T08:57:17;95832.84;;;15.64;27.06
64064;BME280;50314;50.618;10.642;2022-12-29T08:59:43;95832.69;;;15.65;27.10
64064;BME280;50314;50.618;10.642;2022-12-29T09:02:11;95823.22;;;15.63;27.18
64064;BME280;50314;50.618;10.642;2022-12-29T09:04:37;95829.34;;;15.63;27.11
64064;BME280;50314;50.618;10.642;2022-12-29T09:07:02;95833.69;;;15.64;27.01
64064;BME280;50314;50.618;10.642;2022-12-29T09:09:27;95830.22;;;15.64;27.14
64064;BME280;50314;50.618;10.642;2022-12-29T09:11:54;95836.34;;;15.64;27.04
64064;BME280;50314;50.618;10.642;2022-12-29T09:14:20;95846.97;;;15.64;26.98
64064;BME280;50314;50.618;10.642;2022-12-29T09:16:46;95851.44;;;15.64;26.96
64064;BME280;50314;50.618;10.642;2022-12-29T09:19:31;95848.78;;;15.64;27.10
64064;BME280;50314;50.618;10.642;2022-12-29T09:21:56;95856.75;;;15.64;27.09
64064;BME280;50314;50.618;10.642;2022-12-29T09:24:22;95846.78;;;15.66;27.31
64064;BME280;50314;50.618;10.642;2022-12-29T09:26:47;95862.69;;;15.66;26.95
64064;BME280;50314;50.618;10.642;2022-12-29T09:29:12;95852.09;;;15.66;27.11
64064;BME280;50314;50.618;10.642;2022-12-29T09:31:38;95866.19;;;15.66;27.02
64064;BME280;50314;50.618;10.642;2022-12-29T09:34:03;95869.66;;;15.67;27.09
64064;BME280;50314;50.618;10.642;2022-12-29T09:36:29;95860.06;;;15.66;27.06
64064;BME280;50314;50.618;10.642;2022-12-29T09:38:55;95862.56;;;15.67;26.93
64064;BME280;50314;50.618;10.642;2022-12-29T09:41:26;95860.88;;;15.66;26.87
64064;BME280;50314;50.618;10.642;2022-12-29T09:44:06;95869.00;;;15.65;27.13
64064;BME280;50314;50.618;10.642;2022-12-29T09:46:40;95856.38;;;15.67;27.19
64064;BME280;50314;50.618;10.642;2022-12-29T09:51:48;95877.63;;;15.67;27.10
64064;BME280;50314;50.618;10.642;2022-12-29T09:54:37;95860.22;;;15.64;27.12
64064;BME280;50314;50.618;10.642;2022-12-29T09:57:05;95863.53;;;15.66;27.22
64064;BME280;50314;50.618;10.642;2022-12-29T09:59:40;95864.34;;;15.67;27.10
64064;BME280;50314;50.618;10.642;2022-12-29T10:05:00;95860.72;;;15.68;27.26
64064;BME280;50314;50.618;10.642;2022-12-29T10:07:37;95869.34;;;15.70;27.07
64064;BME280;50314;50.618;10.642;2022-12-29T10:10:28;95863.06;;;15.71;27.14
64064;BME280;50314;50.618;10.642;2022-12-29T10:21:19;95849.94;;;15.69;27.24
64064;BME280;50314;50.618;10.642;2022-12-29T10:23:43;95853.25;;;15.71;27.04
64064;BME280;50314;50.618;10.642;2022-12-29T10:26:21;95856.91;;;15.70;27.13
64064;BME280;50314;50.618;10.642;2022-12-29T10:31:24;95852.09;;;15.74;27.08
64064;BME280;50314;50.618;10.642;2022-12-29T10:33:58;95854.09;;;15.72;27.12
64064;BME280;50314;50.618;10.642;2022-12-29T10:36:38;95844.13;;;15.74;27.08
64064;BME280;50314;50.618;10.642;2022-12-29T10:39:19;95841.81;;;15.71;26.82
64064;BME280;50314;50.618;10.642;2022-12-29T10:41:51;95839.66;;;15.74;27.06
64064;BME280;50314;50.618;10.642;2022-12-29T10:44:18;95824.38;;;15.77;27.18
64064;BME280;50314;50.618;10.642;2022-12-29T10:46:46;95828.69;;;15.69;27.16
64064;BME280;50314;50.618;10.642;2022-12-29T10:49:18;95839.47;;;15.76;26.93
64064;BME280;50314;50.618;10.642;2022-12-29T10:51:46;95834.84;;;15.78;27.05
64064;BME280;50314;50.618;10.642;2022-12-29T10:54:19;95834.03;;;15.78;26.74
64064;BME280;50314;50.618;10.642;2022-12-29T10:56:50;95830.34;;;15.79;27.03
64064;BME280;50314;50.618;10.642;2022-12-29T10:59:43;95834.16;;;15.76;27.07
64064;BME280;50314;50.618;10.642;2022-12-29T11:07:09;95823.72;;;15.83;27.32
64064;BME280;50314;50.618;10.642;2022-12-29T11:09:37;95833.50;;;15.82;26.99
64064;BME280;50314;50.618;10.642;2022-12-29T11:12:29;95832.00;;;15.80;27.09
64064;BME280;50314;50.618;10.642;2022-12-29T11:15:15;95828.72;;;15.78;27.09
64064;BME280;50314;50.618;10.642;2022-12-29T11:17:46;95828.38;;;15.81;27.12
64064;BME280;50314;50.618;10.642;2022-12-29T11:20:37;95833.84;;;15.79;27.15
64064;BME280;50314;50.618;10.642;2022-12-29T11:23:05;95826.38;;;15.83;27.14
64064;BME280;50314;50.618;10.642;2022-12-29T11:25:30;95826.22;;;15.84;27.37
64064;BME280;50314;50.618;10.642;2022-12-29T11:28:00;95843.47;;;15.88;27.36
64064;BME280;50314;50.618;10.642;2022-12-29T11:30:29;95845.13;;;15.89;27.39
64064;BME280;50314;50.618;10.642;2022-12-29T11:32:56;95829.03;;;15.91;27.32
64064;BME280;50314;50.618;10.642;2022-12-29T11:35:42;95842.47;;;15.89;27.21
64064;BME280;50314;50.618;10.642;2022-12-29T11:38:20;95846.94;;;15.89;27.10
64064;BME280;50314;50.618;10.642;2022-12-29T11:40:47;95837.81;;;15.91;27.15
64064;BME280;50314;50.618;10.642;2022-12-29T11:43:40;95844.94;;;15.83;27.35
64064;BME280;50314;50.618;10.642;2022-12-29T11:46:14;95841.28;;;15.84;27.29
64064;BME280;50314;50.618;10.642;2022-12-29T11:48:42;95844.78;;;15.92;27.26
64064;BME280;50314;50.618;10.642;2022-12-29T11:51:08;95844.78;;;15.92;27.41
64064;BME280;50314;50.618;10.642;2022-12-29T11:53:39;95843.78;;;15.93;27.45
64064;BME280;50314;50.618;10.642;2022-12-29T11:56:13;95840.78;;;15.96;27.32
64064;BME280;50314;50.618;10.642;2022-12-29T11:58:40;95852.09;;;15.98;27.33
64064;BME280;50314;50.618;10.642;2022-12-29T12:01:15;95836.31;;;15.97;27.45
64064;BME280;50314;50.618;10.642;2022-12-29T12:06:23;95857.06;;;16.02;27.26
64064;BME280;50314;50.618;10.642;2022-12-29T12:09:03;95858.41;;;15.97;27.31
64064;BME280;50314;50.618;10.642;2022-12-29T12:11:34;95866.69;;;16.03;27.18
64064;BME280;50314;50.618;10.642;2022-12-29T12:14:37;95852.09;;;15.98;27.23
64064;BME280;50314;50.618;10.642;2022-12-29T12:17:19;95845.75;;;16.00;27.47
64064;BME280;50314;50.618;10.642;2022-12-29T12:25:57;95841.13;;;16.02;27.52
64064;BME280;50314;50.618;10.642;2022-12-29T12:28:37;95840.44;;;16.00;27.51
64064;BME280;50314;50.618;10.642;2022-12-29T12:31:15;95844.44;;;16.04;27.34
64064;BME280;50314;50.618;10.642;2022-12-29T12:33:45;95843.13;;;16.08;27.50
64064;BME280;50314;50.618;10.642;2022-12-29T12:52:16;95855.56;;;16.15;27.20
64064;BME280;50314;50.618;10.642;2022-12-29T12:57:53;95851.09;;;16.16;27.15
64064;BME280;50314;50.618;10.642;2022-12-29T13:00:23;95844.44;;;16.20;27.24
64064;BME280;50314;50.618;10.642;2022-12-29T13:14:12;95881.31;;;16.15;27.08
64064;BME280;50314;50.618;10.642;2022-12-29T13:16:50;95883.78;;;16.16;26.99
64064;BME280;50314;50.618;10.642;2022-12-29T13:24:55;95896.59;;;16.13;26.94
64064;BME280;50314;50.618;10.642;2022-12-29T13:30:03;95913.19;;;16.15;26.92
64064;BME280;50314;50.618;10.642;2022-12-29T13:33:34;95908.84;;;16.14;26.99
64064;BME280;50314;50.618;10.642;2022-12-29T13:35:54;95909.03;;;16.12;26.70
64064;BME280;50314;50.618;10.642;2022-12-29T13:38:48;95908.22;;;16.12;26.69
64064;BME280;50314;50.618;10.642;2022-12-29T13:41:19;95912.69;;;16.11;26.42
64064;BME280;50314;50.618;10.642;2022-12-29T13:43:47;95907.84;;;16.07;26.39
64064;BME280;50314;50.618;10.642;2022-12-29T13:46:21;95923.13;;;16.05;26.62
64064;BME280;50314;50.618;10.642;2022-12-29T13:48:58;95920.63;;;16.03;26.47
64064;BME280;50314;50.618;10.642;2022-12-29T13:51:27;95916.47;;;16.09;26.61
64064;BME280;50314;50.618;10.642;2022-12-29T13:54:15;95917.81;;;16.05;26.75
64064;BME280;50314;50.618;10.642;2022-12-29T13:56:55;95920.28;;;16.06;26.72
64064;BME280;50314;50.618;10.642;2022-12-29T14:01:59;95921.59;;;16.10;26.73
64064;BME280;50314;50.618;10.642;2022-12-29T14:04:29;95930.28;;;16.12;26.73
64064;BME280;50314;50.618;10.642;2022-12-29T14:07:05;95921.59;;;16.10;26.89
64064;BME280;50314;50.618;10.642;2022-12-29T14:09:57;95922.81;;;16.08;26.74
64064;BME280;50314;50.618;10.642;2022-12-29T14:12:38;95924.44;;;16.09;26.76
64064;BME280;50314;50.618;10.642;2022-12-29T14:17:33;95930.09;;;16.14;26.67
64064;BME280;50314;50.618;10.642;2022-12-29T14:19:59;95928.13;;;16.16;26.87
64064;BME280;50314;50.618;10.642;2022-12-29T14:22:26;95923.63;;;16.16;26.73
64064;BME280;50314;50.618;10.642;2022-12-29T14:24:52;95925.28;;;16.09;26.71
64064;BME280;50314;50.618;10.642;2022-12-29T14:29:50;95920.16;;;16.16;26.32
64064;BME280;50314;50.618;10.642;2022-12-29T14:37:34;95933.06;;;16.11;26.57
64064;BME280;50314;50.618;10.642;2022-12-29T14:42:32;95938.75;;;16.08;26.09
64064;BME280;50314;50.618;10.642;2022-12-29T14:47:51;95941.69;;;15.96;25.77
64064;BME280;50314;50.618;10.642;2022-12-29T14:52:58;95952.81;;;15.84;25.83
64064;BME280;50314;50.618;10.642;2022-12-29T14:55:46;95954.63;;;15.75;25.84
64064;BME280;50314;50.618;10.642;2022-12-29T14:58:29;95951.94;;;15.67;25.75
64064;BME280;50314;50.618;10.642;2022-12-29T15:00:57;95947.66;;;15.66;26.06
64064;BME280;50314;50.618;10.642;2022-12-29T15:03:32;95956.25;;;15.60;26.26
64064;BME280;50314;50.618;10.642;2022-12-29T15:06:04;95956.25;;;15.60;26.21
64064;BME280;50314;50.618;10.642;2022-12-29T15:08:36;95955.09;;;15.62;26.33
64064;BME280;50314;50.618;10.642;2022-12-29T15:11:09;95955.94;;;15.63;26.28
64064;BME280;50314;50.618;10.642;2022-12-29T15:13:39;95955.78;;;15.64;26.28